createdAt,value
2022-12-15T08:33:56.132Z,-6.00
2022-12-15T10:25:30.794Z,1.03
2022-12-15T10:26:30.763Z,1.98
2022-12-15T10:27:32.909Z,2.92
2022-12-15T10:28:34.922Z,3.75
2022-12-15T10:29:37.045Z,4.48
2022-12-15T10:30:39.126Z,5.29
2022-12-15T10:31:41.208Z,5.91
2022-12-15T10:32:43.225Z,6.41
2022-12-15T10:33:50.236Z,6.25
2022-12-15T10:34:46.746Z,5.59
2022-12-15T10:35:48.554Z,4.53
2022-12-15T10:36:49.516Z,4.03
2022-12-15T10:37:51.659Z,3.55
2022-12-15T10:38:53.741Z,3.10
2022-12-15T10:39:55.204Z,2.87
2022-12-15T10:40:57.233Z,2.48
2022-12-15T10:41:59.235Z,2.28
2022-12-15T10:43:01.234Z,1.73
2022-12-15T10:44:03.256Z,1.85
2022-12-15T10:45:05.284Z,1.88
2022-12-15T10:46:07.371Z,1.77
2022-12-15T10:47:09.397Z,1.68
2022-12-15T10:48:11.417Z,1.50
2022-12-15T10:49:13.432Z,1.37
2022-12-15T10:50:19.447Z,1.21
2022-12-15T10:51:16.885Z,1.22
2022-12-15T10:52:19.829Z,1.91
2022-12-15T10:53:20.734Z,2.52
2022-12-15T10:54:22.752Z,3.00
2022-12-15T10:55:24.771Z,2.93
2022-12-15T10:56:32.759Z,3.39
2022-12-15T10:57:28.210Z,3.98
2022-12-15T10:58:30.236Z,4.83
2022-12-15T10:59:32.226Z,5.69
2022-12-15T11:00:34.251Z,6.26
2022-12-15T11:01:36.519Z,6.71
2022-12-15T11:02:37.826Z,6.99
2022-12-15T11:03:40.155Z,7.48
2022-12-15T11:04:40.395Z,7.97
2022-12-15T11:05:42.499Z,8.38
2022-12-15T11:06:44.501Z,8.44
2022-12-15T11:07:45.991Z,8.07
2022-12-15T11:08:47.366Z,7.61
2022-12-15T11:09:49.393Z,6.88
2022-12-15T11:10:50.787Z,5.83
2022-12-15T11:11:52.823Z,4.78
2022-12-15T11:12:58.572Z,3.90
2022-12-15T11:13:56.321Z,3.25
2022-12-15T11:14:58.321Z,2.72
2022-12-15T11:16:00.341Z,2.28
2022-12-15T11:17:02.348Z,1.92
2022-12-15T11:18:04.371Z,1.55
2022-12-15T11:19:06.371Z,1.19
